createdAt,value
2023-01-19T00:02:40.085Z,27.15
2023-01-19T00:07:42.058Z,22.13
2023-01-19T00:12:44.067Z,24.92
2023-01-19T00:17:45.856Z,23.58
2023-01-19T00:22:51.150Z,27.45
2023-01-19T00:27:52.928Z,26.90
2023-01-19T00:32:54.890Z,22.20
2023-01-19T00:37:58.032Z,24.80
2023-01-19T00:43:00.638Z,21.83
2023-01-19T00:48:02.973Z,36.67
2023-01-19T00:53:05.105Z,23.52
2023-01-19T00:58:07.333Z,27.40
2023-01-19T01:03:10.212Z,24.77
2023-01-19T01:08:12.031Z,25.17
2023-01-19T01:13:21.665Z,26.27
2023-01-19T01:18:26.313Z,27.95
2023-01-19T01:23:28.103Z,28.65
2023-01-19T01:28:29.881Z,34.47
2023-01-19T01:33:41.370Z,26.35
2023-01-19T01:38:43.638Z,30.08
2023-01-19T01:43:58.171Z,33.22
2023-01-19T01:49:10.329Z,31.83
2023-01-19T01:54:18.339Z,29.13
2023-01-19T01:59:26.321Z,21.60
2023-01-19T02:04:29.845Z,27.13
2023-01-19T02:09:53.600Z,26.92
2023-01-19T02:14:55.516Z,26.10
2023-01-19T02:19:58.253Z,26.73
2023-01-19T02:25:00.244Z,24.77
2023-01-19T02:30:03.827Z,27.70
2023-01-19T02:35:06.587Z,33.05
2023-01-19T02:40:12.710Z,28.20
2023-01-19T02:45:19.916Z,23.90
2023-01-19T02:50:53.060Z,27.63
2023-01-19T02:56:11.991Z,19.85
2023-01-19T03:01:21.562Z,21.27
2023-01-19T03:06:32.367Z,17.20
2023-01-19T03:11:40.173Z,21.98
2023-01-19T03:16:51.264Z,25.00
2023-01-19T03:22:00.204Z,27.80
2023-01-19T03:27:08.591Z,28.08
2023-01-19T03:32:16.336Z,31.67
2023-01-19T03:37:20.469Z,27.13
2023-01-19T03:42:23.956Z,27.77
2023-01-19T03:47:26.036Z,26.27
2023-01-19T03:52:29.911Z,23.10
2023-01-19T03:57:32.272Z,37.90
2023-01-19T04:02:34.058Z,26.25
2023-01-19T04:07:35.873Z,30.27
2023-01-19T04:12:37.714Z,29.20
2023-01-19T04:17:39.914Z,21.48
2023-01-19T04:22:42.612Z,29.52
2023-01-19T04:27:44.420Z,26.75
2023-01-19T04:32:46.672Z,23.73
2023-01-19T04:37:48.613Z,24.13
2023-01-19T04:42:50.963Z,28.67
2023-01-19T04:47:53.043Z,30.40
2023-01-19T04:52:54.793Z,28.30
2023-01-19T04:57:56.912Z,30.80
2023-01-19T05:02:59.003Z,26.52
2023-01-19T05:08:01.373Z,29.35
2023-01-19T05:13:04.292Z,29.70
2023-01-19T05:18:06.167Z,39.80
2023-01-19T05:23:07.922Z,32.97
2023-01-19T05:28:09.691Z,30.92
2023-01-19T05:33:11.627Z,36.15
2023-01-19T05:38:14.530Z,32.65
2023-01-19T05:43:17.477Z,35.65
2023-01-19T05:48:19.319Z,36.35
2023-01-19T05:53:21.234Z,40.15
2023-01-19T05:58:23.058Z,37.88
2023-01-19T06:03:24.869Z,38.17
2023-01-19T06:08:27.122Z,39.92
2023-01-19T06:13:28.897Z,37.47
2023-01-19T06:18:30.679Z,33.13
2023-01-19T06:23:33.842Z,35.30
2023-01-19T06:28:35.806Z,36.25
2023-01-19T06:33:37.835Z,40.92
2023-01-19T06:38:39.911Z,39.47
2023-01-19T06:43:41.675Z,40.10
2023-01-19T06:48:43.417Z,42.80
2023-01-19T06:53:45.783Z,32.97
2023-01-19T06:58:48.385Z,30.58
2023-01-19T07:03:50.341Z,36.45
2023-01-19T07:08:52.128Z,36.38
2023-01-19T07:13:54.700Z,36.92
2023-01-19T07:18:56.536Z,40.53
2023-01-19T07:23:58.399Z,36.80
2023-01-19T07:29:00.200Z,32.72
2023-01-19T07:34:02.080Z,35.40
2023-01-19T07:39:03.965Z,34.75
2023-01-19T07:44:05.746Z,43.60
2023-01-19T07:49:08.144Z,39.28
2023-01-19T07:54:10.359Z,40.28
2023-01-19T07:59:12.453Z,39.92
2023-01-19T08:04:14.272Z,42.95
2023-01-19T08:09:16.130Z,47.88
2023-01-19T08:14:18.195Z,34.13
2023-01-19T08:19:20.059Z,48.08
2023-01-19T08:24:23.681Z,30.10
2023-01-19T08:29:26.102Z,35.40
2023-01-19T08:34:27.916Z,43.03
2023-01-19T08:39:30.160Z,33.47
2023-01-19T08:44:31.936Z,42.35
2023-01-19T08:49:33.765Z,48.95
2023-01-19T08:54:36.026Z,55.95
2023-01-19T08:59:38.206Z,32.13
2023-01-19T09:04:39.981Z,37.35
2023-01-19T09:09:43.482Z,38.70
2023-01-19T09:14:45.365Z,34.92
2023-01-19T09:19:48.403Z,34.67
2023-01-19T09:24:50.255Z,33.35
2023-01-19T09:29:54.869Z,37.17
2023-01-19T09:34:56.882Z,38.80
2023-01-19T09:39:58.650Z,36.25
2023-01-19T09:45:02.459Z,35.45
2023-01-19T09:50:10.649Z,34.28
2023-01-19T09:55:26.990Z,45.70
2023-01-19T10:00:30.834Z,32.25
2023-01-19T10:05:47.445Z,32.50
2023-01-19T10:10:53.739Z,30.83
2023-01-19T10:16:31.580Z,35.10
2023-01-19T10:21:43.319Z,30.52
2023-01-19T10:26:52.523Z,35.40
2023-01-19T10:32:12.973Z,36.50
2023-01-19T10:37:21.970Z,18.00
2023-01-19T10:42:23.876Z,25.55
2023-01-19T10:47:33.544Z,33.78
2023-01-19T10:52:39.762Z,20.95
2023-01-19T10:57:43.493Z,31.77
2023-01-19T11:02:51.362Z,32.65
2023-01-19T11:07:53.317Z,29.98
2023-01-19T11:13:12.922Z,27.58
2023-01-19T11:18:36.707Z,24.45
2023-01-19T11:23:42.121Z,36.00
2023-01-19T11:28:49.356Z,32.60
2023-01-19T11:33:53.636Z,34.70
2023-01-19T11:39:16.778Z,36.90
2023-01-19T11:44:28.110Z,29.08
2023-01-19T11:49:38.760Z,39.92
2023-01-19T11:59:58.669Z,38.63
2023-01-19T12:05:06.350Z,33.28
2023-01-19T12:10:28.770Z,31.88
2023-01-19T12:15:41.917Z,36.08
2023-01-19T12:20:48.968Z,34.47
2023-01-19T12:26:32.346Z,26.90
2023-01-19T12:31:35.105Z,29.33
2023-01-19T12:36:40.613Z,36.10
2023-01-19T12:41:43.145Z,30.85
2023-01-19T12:46:58.078Z,45.00
2023-01-19T12:52:20.325Z,33.03
2023-01-19T12:58:00.365Z,40.40
2023-01-19T13:03:25.307Z,30.80
2023-01-19T13:08:30.434Z,27.30
2023-01-19T13:13:44.493Z,35.30
2023-01-19T13:18:54.909Z,37.25
2023-01-19T13:23:59.455Z,25.20
2023-01-19T13:29:22.977Z,33.03
2023-01-19T13:34:27.827Z,21.30
2023-01-19T13:39:36.890Z,28.63
2023-01-19T13:44:47.119Z,29.02
2023-01-19T13:49:54.410Z,17.75
2023-01-19T13:54:58.764Z,25.48
2023-01-19T14:00:08.411Z,16.92
2023-01-19T14:05:22.363Z,20.50
2023-01-19T14:10:24.154Z,21.27
2023-01-19T14:15:26.237Z,21.35
2023-01-19T14:20:29.886Z,22.60
2023-01-19T14:25:36.565Z,21.40
2023-01-19T14:30:38.493Z,20.58
2023-01-19T14:35:40.467Z,24.42
2023-01-19T14:40:42.522Z,24.50
2023-01-19T14:45:47.735Z,28.92
2023-01-19T14:51:02.803Z,26.77
2023-01-19T14:56:07.265Z,26.92
2023-01-19T15:01:09.532Z,34.13
2023-01-19T15:06:15.615Z,27.20
2023-01-19T15:11:24.712Z,27.17
2023-01-19T15:16:28.648Z,31.00
2023-01-19T15:21:30.687Z,23.15
2023-01-19T15:26:32.495Z,26.30
2023-01-19T15:31:35.702Z,26.35
2023-01-19T15:36:37.446Z,29.75
2023-01-19T15:41:40.168Z,31.83
2023-01-19T15:46:41.925Z,29.73
2023-01-19T15:51:43.782Z,31.60
2023-01-19T15:56:45.645Z,41.60
2023-01-19T16:01:47.498Z,30.27
2023-01-19T16:06:50.152Z,35.08
2023-01-19T16:11:57.024Z,30.75
2023-01-19T16:17:00.020Z,32.08
2023-01-19T16:22:02.076Z,34.88
2023-01-19T16:27:04.088Z,34.47
2023-01-19T16:32:06.083Z,32.03
2023-01-19T16:37:08.014Z,32.17
2023-01-19T16:42:09.776Z,31.10
2023-01-19T16:47:11.591Z,34.00
2023-01-19T16:52:13.498Z,34.13
2023-01-19T16:57:15.300Z,30.95
2023-01-19T17:02:17.079Z,33.38
2023-01-19T17:07:19.397Z,34.10
2023-01-19T17:12:21.243Z,37.85
2023-01-19T17:17:23.285Z,34.33
2023-01-19T17:22:25.057Z,32.22
2023-01-19T17:27:26.876Z,38.33
2023-01-19T17:32:29.836Z,39.53
2023-01-19T17:37:34.607Z,38.08
2023-01-19T17:42:42.535Z,45.13
2023-01-19T17:47:44.303Z,38.45
2023-01-19T17:52:46.177Z,43.15
2023-01-19T17:57:48.039Z,36.72
2023-01-19T18:02:51.370Z,43.40
2023-01-19T18:07:53.338Z,34.70
2023-01-19T18:12:55.222Z,44.67
2023-01-19T18:17:57.062Z,44.63
2023-01-19T18:22:58.956Z,37.03
2023-01-19T18:28:00.952Z,37.78
2023-01-19T18:33:04.259Z,40.17
2023-01-19T18:38:06.154Z,40.38
2023-01-19T18:43:09.805Z,40.85
2023-01-19T18:48:11.653Z,39.63
2023-01-19T18:53:14.138Z,36.03
2023-01-19T18:58:16.233Z,32.03
2023-01-19T19:03:18.102Z,31.27
2023-01-19T19:08:20.071Z,34.00
2023-01-19T19:13:23.589Z,35.85
2023-01-19T19:18:25.447Z,37.75
2023-01-19T19:23:27.307Z,35.42
2023-01-19T19:28:29.158Z,36.50
2023-01-19T19:33:30.960Z,49.63
2023-01-19T19:38:33.437Z,44.20
2023-01-19T19:43:36.434Z,40.28
2023-01-19T19:48:39.623Z,43.53
2023-01-19T19:53:41.779Z,43.65
2023-01-19T19:58:43.775Z,41.03
2023-01-19T20:03:45.975Z,36.08
2023-01-19T20:08:49.009Z,42.17
2023-01-19T20:14:07.234Z,44.97
2023-01-19T20:19:09.789Z,36.42
2023-01-19T20:24:17.218Z,39.10
2023-01-19T20:29:20.832Z,34.28
2023-01-19T20:34:25.918Z,49.33
2023-01-19T20:39:30.229Z,39.15
2023-01-19T20:44:32.051Z,42.08
2023-01-19T20:49:33.844Z,35.72
2023-01-19T20:54:35.807Z,37.53
2023-01-19T20:59:38.329Z,36.63
2023-01-19T21:04:40.534Z,44.30
2023-01-19T21:09:42.484Z,52.33
2023-01-19T21:14:45.937Z,42.40
2023-01-19T21:19:48.456Z,42.63
2023-01-19T21:24:50.257Z,35.40
2023-01-19T21:29:52.033Z,42.90
2023-01-19T21:34:53.851Z,43.63
2023-01-19T21:39:55.842Z,43.92
2023-01-19T21:44:57.963Z,40.88
2023-01-19T21:50:01.316Z,38.85
2023-01-19T21:55:03.122Z,44.63
2023-01-19T22:00:06.531Z,38.53
2023-01-19T22:05:08.717Z,37.58
2023-01-19T22:10:13.513Z,39.83
2023-01-19T22:15:15.467Z,42.90
2023-01-19T22:20:17.453Z,44.40
2023-01-19T22:25:23.800Z,44.33
2023-01-19T22:30:25.663Z,50.85
2023-01-19T22:35:27.629Z,47.88
2023-01-19T22:40:29.424Z,40.22
2023-01-19T22:45:31.197Z,52.42
2023-01-19T22:50:34.849Z,42.95
2023-01-19T22:55:36.568Z,50.65
2023-01-19T23:00:38.331Z,42.63
2023-01-19T23:05:40.213Z,49.03
2023-01-19T23:10:42.035Z,45.28
2023-01-19T23:15:44.116Z,46.45
2023-01-19T23:20:45.936Z,48.45
2023-01-19T23:25:47.747Z,45.03
2023-01-19T23:30:49.584Z,42.85
2023-01-19T23:35:51.481Z,43.33
2023-01-19T23:40:57.272Z,53.38
2023-01-19T23:46:05.870Z,44.92
2023-01-19T23:51:09.654Z,47.35
2023-01-19T23:56:15.588Z,50.47
